sensor_id;sensor_type;location;lat;lon;timestamp;pressure;altitude;pressure_sealevel;temperature;humidity
36834;BME280;48003;52.084;5.224;2023-04-23T00:01:07;100809.0;;;11.59;83.01
36834;BME280;48003;52.084;5.224;2023-04-23T00:02:44;100814.0;;;11.67;82.69
36834;BME280;48003;52.084;5.224;2023-04-23T00:04:21;100816.0;;;11.72;82.36
36834;BME280;48003;52.084;5.224;2023-04-23T00:06:01;100813.0;;;11.74;81.78
36834;BME280;48003;52.084;5.224;2023-04-23T00:09:18;100815.0;;;11.78;81.61
36834;BME280;48003;52.084;5.224;2023-04-23T00:10:57;100812.0;;;11.89;81.36
36834;BME280;48003;52.084;5.224;2023-04-23T00:12:35;100807.0;;;11.97;80.97
36834;BME280;48003;52.084;5.224;2023-04-23T00:14:12;100805.0;;;11.99;80.69
36834;BME280;48003;52.084;5.224;2023-04-23T00:17:25;100798.0;;;12.0;80.49
36834;BME280;48003;52.084;5.224;2023-04-23T00:19:02;100800.0;;;11.94;80.62
36834;BME280;48003;52.084;5.224;2023-04-23T00:20:39;100797.0;;;12.07;80.33
36834;BME280;48003;52.084;5.224;2023-04-23T00:23:52;100797.0;;;12.13;79.97
36834;BME280;48003;52.084;5.224;2023-04-23T00:25:28;100796.0;;;12.11;80.03
36834;BME280;48003;52.084;5.224;2023-04-23T00:27:04;100800.0;;;12.08;80.11
36834;BME280;48003;52.084;5.224;2023-04-23T00:30:17;100793.0;;;11.99;80.16
36834;BME280;48003;52.084;5.224;2023-04-23T00:31:53;100791.0;;;12.01;80.5
36834;BME280;48003;52.084;5.224;2023-04-23T00:33:30;100789.0;;;11.93;80.78
36834;BME280;48003;52.084;5.224;2023-04-23T00:35:07;100785.0;;;12.05;80.12
36834;BME280;48003;52.084;5.224;2023-04-23T00:38:20;100776.0;;;12.1;79.99
36834;BME280;48003;52.084;5.224;2023-04-23T00:39:56;100778.0;;;11.98;80.3
36834;BME280;48003;52.084;5.224;2023-04-23T00:41:33;100780.0;;;11.97;80.41
36834;BME280;48003;52.084;5.224;2023-04-23T00:44:45;100776.0;;;11.95;80.63
36834;BME280;48003;52.084;5.224;2023-04-23T00:46:24;100776.0;;;11.96;80.75
36834;BME280;48003;52.084;5.224;2023-04-23T00:48:01;100774.0;;;12.0;80.27
36834;BME280;48003;52.084;5.224;2023-04-23T00:51:15;100774.0;;;11.9;80.78
36834;BME280;48003;52.084;5.224;2023-04-23T00:52:52;100774.0;;;11.92;80.67
36834;BME280;48003;52.084;5.224;2023-04-23T00:54:28;100767.0;;;11.9;80.7
36834;BME280;48003;52.084;5.224;2023-04-23T00:56:06;100765.0;;;11.74;81.13
36834;BME280;48003;52.084;5.224;2023-04-23T00:59:20;100761.0;;;11.83;81.36
36834;BME280;48003;52.084;5.224;2023-04-23T01:00:57;100760.0;;;11.91;81.06
36834;BME280;48003;52.084;5.224;2023-04-23T01:02:35;100755.0;;;11.94;80.92
36834;BME280;48003;52.084;5.224;2023-04-23T01:05:51;100750.0;;;11.92;81.09
36834;BME280;48003;52.084;5.224;2023-04-23T01:07:28;100747.0;;;11.93;81.03
36834;BME280;48003;52.084;5.224;2023-04-23T01:09:06;100745.0;;;11.88;81.17
36834;BME280;48003;52.084;5.224;2023-04-23T01:10:43;100743.0;;;11.79;81.7
36834;BME280;48003;52.084;5.224;2023-04-23T01:13:58;100741.0;;;11.79;81.93
36834;BME280;48003;52.084;5.224;2023-04-23T01:15:34;100744.0;;;11.83;82.07
36834;BME280;48003;52.084;5.224;2023-04-23T01:17:10;100739.0;;;11.56;82.83
36834;BME280;48003;52.084;5.224;2023-04-23T01:20:24;100737.0;;;11.75;82.33
36834;BME280;48003;52.084;5.224;2023-04-23T01:22:01;100736.0;;;11.87;82.41
36834;BME280;48003;52.084;5.224;2023-04-23T01:23:38;100728.0;;;11.75;82.51
36834;BME280;48003;52.084;5.224;2023-04-23T01:26:51;100730.0;;;11.94;82.02
36834;BME280;48003;52.084;5.224;2023-04-23T01:28:28;100730.0;;;11.68;82.65
36834;BME280;48003;52.084;5.224;2023-04-23T01:30:06;100723.0;;;11.97;82.1
36834;BME280;48003;52.084;5.224;2023-04-23T01:31:43;100723.0;;;11.9;82.03
36834;BME280;48003;52.084;5.224;2023-04-23T01:34:56;100724.0;;;11.59;82.98
36834;BME280;48003;52.084;5.224;2023-04-23T01:36:33;100726.0;;;11.64;83.43
36834;BME280;48003;52.084;5.224;2023-04-23T01:38:13;100724.0;;;11.8;82.46
36834;BME280;48003;52.084;5.224;2023-04-23T01:41:27;100723.0;;;11.49;83.8
36834;BME280;48003;52.084;5.224;2023-04-23T01:43:03;100721.0;;;11.45;83.7
36834;BME280;48003;52.084;5.224;2023-04-23T01:44:42;100717.0;;;11.5;83.77
36834;BME280;48003;52.084;5.224;2023-04-23T01:46:19;100716.0;;;11.51;84.45
36834;BME280;48003;52.084;5.224;2023-04-23T01:49:33;100721.0;;;11.61;84.04
36834;BME280;48003;52.084;5.224;2023-04-23T01:51:09;100719.0;;;11.99;82.38
36834;BME280;48003;52.084;5.224;2023-04-23T01:52:46;100716.0;;;11.48;84.32
36834;BME280;48003;52.084;5.224;2023-04-23T01:55:59;100713.0;;;11.44;85.22
36834;BME280;48003;52.084;5.224;2023-04-23T01:57:37;100718.0;;;11.32;84.95
36834;BME280;48003;52.084;5.224;2023-04-23T01:59:13;100719.0;;;11.15;86.24
36834;BME280;48003;52.084;5.224;2023-04-23T02:00:50;100718.0;;;11.32;85.99
36834;BME280;48003;52.084;5.224;2023-04-23T02:04:03;100709.0;;;11.91;83.4
36834;BME280;48003;52.084;5.224;2023-04-23T02:05:40;100706.0;;;11.98;82.93
36834;BME280;48003;52.084;5.224;2023-04-23T02:07:18;100705.0;;;11.92;82.78
36834;BME280;48003;52.084;5.224;2023-04-23T02:10:30;100705.0;;;12.0;83.08
36834;BME280;48003;52.084;5.224;2023-04-23T02:12:06;100702.0;;;12.11;82.5
36834;BME280;48003;52.084;5.224;2023-04-23T02:13:43;100695.0;;;12.01;83.12
36834;BME280;48003;52.084;5.224;2023-04-23T02:16:55;100694.0;;;11.65;84.21
36834;BME280;48003;52.084;5.224;2023-04-23T02:18:31;100688.0;;;11.98;83.08
36834;BME280;48003;52.084;5.224;2023-04-23T02:20:08;100685.0;;;12.03;82.65
36834;BME280;48003;52.084;5.224;2023-04-23T02:21:45;100683.0;;;12.0;83.28
36834;BME280;48003;52.084;5.224;2023-04-23T02:24:57;100681.0;;;12.03;82.89
36834;BME280;48003;52.084;5.224;2023-04-23T02:26:35;100686.0;;;11.7;84.45
36834;BME280;48003;52.084;5.224;2023-04-23T02:28:11;100683.0;;;11.97;83.24
36834;BME280;48003;52.084;5.224;2023-04-23T02:31:24;100683.0;;;12.11;82.19
36834;BME280;48003;52.084;5.224;2023-04-23T02:33:01;100686.0;;;11.48;84.65
36834;BME280;48003;52.084;5.224;2023-04-23T02:34:38;100686.0;;;11.36;85.43
36834;BME280;48003;52.084;5.224;2023-04-23T02:37:51;100684.0;;;11.7;84.71
36834;BME280;48003;52.084;5.224;2023-04-23T02:39:28;100681.0;;;11.63;84.81
36834;BME280;48003;52.084;5.224;2023-04-23T02:41:04;100673.0;;;11.25;86.23
36834;BME280;48003;52.084;5.224;2023-04-23T02:42:40;100675.0;;;11.15;87.18
36834;BME280;48003;52.084;5.224;2023-04-23T02:45:53;100676.0;;;11.68;85.09
36834;BME280;48003;52.084;5.224;2023-04-23T02:47:30;100672.0;;;11.56;85.08
36834;BME280;48003;52.084;5.224;2023-04-23T02:49:07;100676.0;;;11.69;85.06
36834;BME280;48003;52.084;5.224;2023-04-23T02:52:19;100681.0;;;11.67;84.93
36834;BME280;48003;52.084;5.224;2023-04-23T02:53:56;100677.0;;;11.5;85.91
36834;BME280;48003;52.084;5.224;2023-04-23T02:55:33;100678.0;;;11.64;84.91
36834;BME280;48003;52.084;5.224;2023-04-23T02:58:46;100682.0;;;11.31;85.94
36834;BME280;48003;52.084;5.224;2023-04-23T03:00:23;100680.0;;;11.2;87.2
36834;BME280;48003;52.084;5.224;2023-04-23T03:02:00;100682.0;;;11.2;87.35
36834;BME280;48003;52.084;5.224;2023-04-23T03:03:36;100684.0;;;11.05;87.86
36834;BME280;48003;52.084;5.224;2023-04-23T03:06:49;100690.0;;;10.82;88.47
36834;BME280;48003;52.084;5.224;2023-04-23T03:08:25;100688.0;;;11.02;88.0
36834;BME280;48003;52.084;5.224;2023-04-23T03:10:03;100690.0;;;11.08;87.29
36834;BME280;48003;52.084;5.224;2023-04-23T03:13:16;100690.0;;;10.97;88.11
36834;BME280;48003;52.084;5.224;2023-04-23T03:14:52;100684.0;;;11.06;88.59
36834;BME280;48003;52.084;5.224;2023-04-23T03:16:29;100686.0;;;10.93;88.7
36834;BME280;48003;52.084;5.224;2023-04-23T03:19:41;100682.0;;;10.67;90.02
36834;BME280;48003;52.084;5.224;2023-04-23T03:21:17;100680.0;;;10.6;90.69
36834;BME280;48003;52.084;5.224;2023-04-23T03:22:54;100680.0;;;10.69;90.0
36834;BME280;48003;52.084;5.224;2023-04-23T03:26:06;100676.0;;;10.8;89.7
36834;BME280;48003;52.084;5.224;2023-04-23T03:27:42;100680.0;;;10.98;88.76
36834;BME280;48003;52.084;5.224;2023-04-23T03:29:18;100682.0;;;10.79;89.22
36834;BME280;48003;52.084;5.224;2023-04-23T03:30:54;100682.0;;;10.87;89.1
36834;BME280;48003;52.084;5.224;2023-04-23T03:34:07;100680.0;;;11.2;87.67
36834;BME280;48003;52.084;5.224;2023-04-23T03:35:43;100680.0;;;10.92;88.52
36834;BME280;48003;52.084;5.224;2023-04-23T03:37:20;100682.0;;;10.63;89.51
36834;BME280;48003;52.084;5.224;2023-04-23T03:40:32;100677.0;;;10.78;89.55
36834;BME280;48003;52.084;5.224;2023-04-23T03:42:08;100672.0;;;10.87;89.07
36834;BME280;48003;52.084;5.224;2023-04-23T03:43:44;100675.0;;;10.95;88.11
36834;BME280;48003;52.084;5.224;2023-04-23T03:46:56;100673.0;;;10.87;88.01
36834;BME280;48003;52.084;5.224;2023-04-23T03:48:33;100667.0;;;11.08;87.25
36834;BME280;48003;52.084;5.224;2023-04-23T03:50:09;100677.0;;;11.16;86.69
36834;BME280;48003;52.084;5.224;2023-04-23T03:51:46;100678.0;;;11.35;85.74
36834;BME280;48003;52.084;5.224;2023-04-23T03:54:59;100672.0;;;11.27;86.17
36834;BME280;48003;52.084;5.224;2023-04-23T03:56:36;100674.0;;;11.33;85.33
36834;BME280;48003;52.084;5.224;2023-04-23T03:58:12;100665.0;;;11.45;85.36
36834;BME280;48003;52.084;5.224;2023-04-23T04:01:25;100659.0;;;11.11;86.12
36834;BME280;48003;52.084;5.224;2023-04-23T04:03:01;100663.0;;;11.41;85.72
36834;BME280;48003;52.084;5.224;2023-04-23T04:04:37;100664.0;;;11.18;86.24
36834;BME280;48003;52.084;5.224;2023-04-23T04:07:50;100665.0;;;11.34;85.32
36834;BME280;48003;52.084;5.224;2023-04-23T04:09:27;100664.0;;;11.43;84.77
36834;BME280;48003;52.084;5.224;2023-04-23T04:11:03;100660.0;;;11.53;84.18
36834;BME280;48003;52.084;5.224;2023-04-23T04:12:40;100653.0;;;11.21;85.7
36834;BME280;48003;52.084;5.224;2023-04-23T04:15:52;100660.0;;;11.32;84.81
36834;BME280;48003;52.084;5.224;2023-04-23T04:17:28;100659.0;;;11.4;85.23
36834;BME280;48003;52.084;5.224;2023-04-23T04:19:06;100658.0;;;11.56;84.08
36834;BME280;48003;52.084;5.224;2023-04-23T04:22:19;100658.0;;;11.8;82.79
36834;BME280;48003;52.084;5.224;2023-04-23T04:23:55;100666.0;;;11.68;82.82
36834;BME280;48003;52.084;5.224;2023-04-23T04:25:32;100659.0;;;11.22;84.76
36834;BME280;48003;52.084;5.224;2023-04-23T04:28:44;100655.0;;;11.78;82.37
36834;BME280;48003;52.084;5.224;2023-04-23T04:30:21;100664.0;;;11.62;82.82
36834;BME280;48003;52.084;5.224;2023-04-23T04:31:57;100660.0;;;11.58;83.16
36834;BME280;48003;52.084;5.224;2023-04-23T04:33:33;100663.0;;;11.64;83.11
36834;BME280;48003;52.084;5.224;2023-04-23T04:36:46;100659.0;;;11.97;81.16
36834;BME280;48003;52.084;5.224;2023-04-23T04:38:22;100666.0;;;11.57;82.71
36834;BME280;48003;52.084;5.224;2023-04-23T04:39:58;100665.0;;;11.53;83.17
36834;BME280;48003;52.084;5.224;2023-04-23T04:43:11;100672.0;;;11.48;83.44
36834;BME280;48003;52.084;5.224;2023-04-23T04:44:48;100670.0;;;11.25;84.61
36834;BME280;48003;52.084;5.224;2023-04-23T04:46:24;100673.0;;;11.74;82.43
36834;BME280;48003;52.084;5.224;2023-04-23T04:49:37;100673.0;;;11.17;84.46
36834;BME280;48003;52.084;5.224;2023-04-23T04:51:13;100666.0;;;11.08;85.27
36834;BME280;48003;52.084;5.224;2023-04-23T04:52:50;100673.0;;;10.97;85.79
36834;BME280;48003;52.084;5.224;2023-04-23T04:56:03;100666.0;;;10.97;86.0
36834;BME280;48003;52.084;5.224;2023-04-23T04:57:40;100665.0;;;11.09;85.31
36834;BME280;48003;52.084;5.224;2023-04-23T04:59:17;100669.0;;;11.08;85.52
36834;BME280;48003;52.084;5.224;2023-04-23T05:00:53;100663.0;;;11.16;84.92
36834;BME280;48003;52.084;5.224;2023-04-23T05:04:06;100661.0;;;11.67;82.9
36834;BME280;48003;52.084;5.224;2023-04-23T05:05:43;100664.0;;;11.55;83.12
36834;BME280;48003;52.084;5.224;2023-04-23T05:07:20;100664.0;;;11.26;84.28
36834;BME280;48003;52.084;5.224;2023-04-23T05:10:32;100663.0;;;11.26;84.8
36834;BME280;48003;52.084;5.224;2023-04-23T05:12:08;100663.0;;;11.49;83.78
36834;BME280;48003;52.084;5.224;2023-04-23T05:13:44;100664.0;;;11.48;83.74
36834;BME280;48003;52.084;5.224;2023-04-23T05:16:58;100660.0;;;11.78;82.19
36834;BME280;48003;52.084;5.224;2023-04-23T05:18:34;100665.0;;;11.49;83.76
36834;BME280;48003;52.084;5.224;2023-04-23T05:20:11;100664.0;;;11.1;85.11
36834;BME280;48003;52.084;5.224;2023-04-23T05:21:47;100663.0;;;11.33;84.71
36834;BME280;48003;52.084;5.224;2023-04-23T05:24:59;100662.0;;;11.74;82.72
36834;BME280;48003;52.084;5.224;2023-04-23T05:26:36;100656.0;;;11.73;82.75
36834;BME280;48003;52.084;5.224;2023-04-23T05:28:12;100664.0;;;11.5;83.49
36834;BME280;48003;52.084;5.224;2023-04-23T05:31:25;100665.0;;;11.45;84.48
36834;BME280;48003;52.084;5.224;2023-04-23T05:33:01;100673.0;;;11.1;85.59
36834;BME280;48003;52.084;5.224;2023-04-23T05:34:38;100672.0;;;10.9;86.71
36834;BME280;48003;52.084;5.224;2023-04-23T05:37:51;100673.0;;;11.27;85.5
36834;BME280;48003;52.084;5.224;2023-04-23T05:39:27;100675.0;;;11.22;85.96
36834;BME280;48003;52.084;5.224;2023-04-23T05:41:03;100680.0;;;10.86;88.16
36834;BME280;48003;52.084;5.224;2023-04-23T05:42:39;100672.0;;;10.71;89.64
36834;BME280;48003;52.084;5.224;2023-04-23T05:45:51;100669.0;;;10.77;89.48
36834;BME280;48003;52.084;5.224;2023-04-23T05:47:28;100672.0;;;10.78;89.87
36834;BME280;48003;52.084;5.224;2023-04-23T05:49:05;100668.0;;;10.84;89.87
36834;BME280;48003;52.084;5.224;2023-04-23T05:52:17;100670.0;;;11.1;89.48
36834;BME280;48003;52.084;5.224;2023-04-23T05:53:54;100666.0;;;10.87;90.29
36834;BME280;48003;52.084;5.224;2023-04-23T05:55:30;100663.0;;;11.02;89.42
36834;BME280;48003;52.084;5.224;2023-04-23T05:58:42;100661.0;;;11.09;89.58
36834;BME280;48003;52.084;5.224;2023-04-23T06:00:19;100661.0;;;11.05;90.37
36834;BME280;48003;52.084;5.224;2023-04-23T06:01:55;100667.0;;;10.77;91.49
36834;BME280;48003;52.084;5.224;2023-04-23T06:03:31;100660.0;;;10.8;91.79
36834;BME280;48003;52.084;5.224;2023-04-23T06:06:44;100661.0;;;10.85;91.98
36834;BME280;48003;52.084;5.224;2023-04-23T06:08:20;100657.0;;;11.17;91.22
36834;BME280;48003;52.084;5.224;2023-04-23T06:09:57;100659.0;;;11.13;91.46
36834;BME280;48003;52.084;5.224;2023-04-23T06:13:09;100655.0;;;11.24;91.3
36834;BME280;48003;52.084;5.224;2023-04-23T06:14:45;100655.0;;;11.38;90.37
36834;BME280;48003;52.084;5.224;2023-04-23T06:16:23;100660.0;;;11.55;89.99
36834;BME280;48003;52.084;5.224;2023-04-23T06:19:35;100664.0;;;11.3;91.49
36834;BME280;48003;52.084;5.224;2023-04-23T06:21:12;100660.0;;;11.37;91.51
36834;BME280;48003;52.084;5.224;2023-04-23T06:22:49;100655.0;;;11.55;91.04
36834;BME280;48003;52.084;5.224;2023-04-23T06:26:02;100659.0;;;11.47;91.39
36834;BME280;48003;52.084;5.224;2023-04-23T06:27:38;100656.0;;;11.62;90.31
36834;BME280;48003;52.084;5.224;2023-04-23T06:29:14;100655.0;;;11.55;91.83
36834;BME280;48003;52.084;5.224;2023-04-23T06:30:51;100649.0;;;11.85;89.99
36834;BME280;48003;52.084;5.224;2023-04-23T06:34:04;100646.0;;;12.2;88.71
36834;BME280;48003;52.084;5.224;2023-04-23T06:35:40;100640.0;;;12.3;87.77
36834;BME280;48003;52.084;5.224;2023-04-23T06:37:16;100634.0;;;12.23;88.32
36834;BME280;48003;52.084;5.224;2023-04-23T06:40:28;100630.0;;;12.43;87.87
36834;BME280;48003;52.084;5.224;2023-04-23T06:42:05;100630.0;;;12.51;87.47
36834;BME280;48003;52.084;5.224;2023-04-23T06:43:41;100630.0;;;12.69;86.51
36834;BME280;48003;52.084;5.224;2023-04-23T06:46:54;100632.0;;;12.22;88.57
36834;BME280;48003;52.084;5.224;2023-04-23T06:48:31;100630.0;;;12.16;89.16
36834;BME280;48003;52.084;5.224;2023-04-23T06:50:08;100626.0;;;12.5;87.95
36834;BME280;48003;52.084;5.224;2023-04-23T06:51:45;100619.0;;;12.54;88.43
36834;BME280;48003;52.084;5.224;2023-04-23T06:54:57;100618.0;;;12.25;89.44
36834;BME280;48003;52.084;5.224;2023-04-23T06:56:33;100621.0;;;12.64;88.38
36834;BME280;48003;52.084;5.224;2023-04-23T06:58:09;100622.0;;;12.35;89.81
36834;BME280;48003;52.084;5.224;2023-04-23T07:01:23;100620.0;;;12.65;88.3
36834;BME280;48003;52.084;5.224;2023-04-23T07:02:59;100622.0;;;12.9;87.23
36834;BME280;48003;52.084;5.224;2023-04-23T07:04:35;100625.0;;;12.93;86.87
36834;BME280;48003;52.084;5.224;2023-04-23T07:07:48;100625.0;;;12.82;86.78
36834;BME280;48003;52.084;5.224;2023-04-23T07:09:25;100630.0;;;12.63;88.36
36834;BME280;48003;52.084;5.224;2023-04-23T07:11:02;100634.0;;;12.57;88.09
36834;BME280;48003;52.084;5.224;2023-04-23T07:12:38;100621.0;;;12.8;88.17
36834;BME280;48003;52.084;5.224;2023-04-23T07:15:51;100619.0;;;12.76;88.33
36834;BME280;48003;52.084;5.224;2023-04-23T07:17:27;100621.0;;;12.4;89.09
36834;BME280;48003;52.084;5.224;2023-04-23T07:19:03;100624.0;;;12.61;89.13
36834;BME280;48003;52.084;5.224;2023-04-23T07:22:17;100626.0;;;13.08;87.01
36834;BME280;48003;52.084;5.224;2023-04-23T07:23:54;100621.0;;;13.46;85.55
36834;BME280;48003;52.084;5.224;2023-04-23T07:25:31;100617.0;;;13.45;85.8
36834;BME280;48003;52.084;5.224;2023-04-23T07:28:44;100620.0;;;13.34;85.95
36834;BME280;48003;52.084;5.224;2023-04-23T07:30:24;100626.0;;;13.24;86.59
36834;BME280;48003;52.084;5.224;2023-04-23T07:32:01;100614.0;;;13.07;87.08
36834;BME280;48003;52.084;5.224;2023-04-23T07:36:50;100610.0;;;13.11;86.7
36834;BME280;48003;52.084;5.224;2023-04-23T07:38:26;100608.0;;;13.42;85.24
36834;BME280;48003;52.084;5.224;2023-04-23T07:40:03;100612.0;;;13.28;86.49
36834;BME280;48003;52.084;5.224;2023-04-23T07:43:17;100613.0;;;13.29;86.16
36834;BME280;48003;52.084;5.224;2023-04-23T07:44:53;100611.0;;;13.26;87.01
36834;BME280;48003;52.084;5.224;2023-04-23T07:46:30;100610.0;;;13.26;86.9
36834;BME280;48003;52.084;5.224;2023-04-23T07:49:43;100605.0;;;13.56;85.66
36834;BME280;48003;52.084;5.224;2023-04-23T07:51:20;100603.0;;;13.65;85.8
36834;BME280;48003;52.084;5.224;2023-04-23T07:52:57;100608.0;;;13.6;86.22
36834;BME280;48003;52.084;5.224;2023-04-23T07:54:33;100597.0;;;13.88;84.86
36834;BME280;48003;52.084;5.224;2023-04-23T07:57:47;100599.0;;;13.8;84.97
36834;BME280;48003;52.084;5.224;2023-04-23T07:59:23;100594.0;;;14.08;84.52
36834;BME280;48003;52.084;5.224;2023-04-23T08:01:01;100599.0;;;14.33;83.5
36834;BME280;48003;52.084;5.224;2023-04-23T08:04:14;100598.0;;;14.24;83.13
36834;BME280;48003;52.084;5.224;2023-04-23T08:05:50;100594.0;;;14.28;81.77
36834;BME280;48003;52.084;5.224;2023-04-23T08:07:27;100587.0;;;13.88;83.05
36834;BME280;48003;52.084;5.224;2023-04-23T08:09:03;100589.0;;;14.37;81.52
36834;BME280;48003;52.084;5.224;2023-04-23T08:12:18;100588.0;;;14.12;81.8
36834;BME280;48003;52.084;5.224;2023-04-23T08:13:54;100582.0;;;14.06;81.31
36834;BME280;48003;52.084;5.224;2023-04-23T08:15:31;100587.0;;;14.45;80.98
36834;BME280;48003;52.084;5.224;2023-04-23T08:18:44;100582.0;;;14.05;81.16
36834;BME280;48003;52.084;5.224;2023-04-23T08:20:20;100582.0;;;14.0;81.55
36834;BME280;48003;52.084;5.224;2023-04-23T08:21:56;100582.0;;;14.04;81.83
36834;BME280;48003;52.084;5.224;2023-04-23T08:25:10;100581.0;;;14.32;80.64
36834;BME280;48003;52.084;5.224;2023-04-23T08:26:46;100584.0;;;14.33;80.59
36834;BME280;48003;52.084;5.224;2023-04-23T08:28:23;100584.0;;;14.3;81.03
36834;BME280;48003;52.084;5.224;2023-04-23T08:30:00;100577.0;;;14.5;80.36
36834;BME280;48003;52.084;5.224;2023-04-23T08:33:12;100577.0;;;14.31;80.69
36834;BME280;48003;52.084;5.224;2023-04-23T08:34:49;100580.0;;;14.44;79.19
36834;BME280;48003;52.084;5.224;2023-04-23T08:36:25;100580.0;;;14.33;79.91
36834;BME280;48003;52.084;5.224;2023-04-23T08:39:39;100577.0;;;14.5;80.7
36834;BME280;48003;52.084;5.224;2023-04-23T08:41:17;100574.0;;;14.42;80.0
36834;BME280;48003;52.084;5.224;2023-04-23T08:43:01;100570.0;;;14.43;79.92
36834;BME280;48003;52.084;5.224;2023-04-23T08:44:40;100576.0;;;14.34;79.55
36834;BME280;48003;52.084;5.224;2023-04-23T08:47:57;100572.0;;;14.16;79.59
36834;BME280;48003;52.084;5.224;2023-04-23T08:49:36;100571.0;;;14.33;80.13
36834;BME280;48003;52.084;5.224;2023-04-23T08:51:18;100573.0;;;14.65;79.39
36834;BME280;48003;52.084;5.224;2023-04-23T08:54:33;100581.0;;;14.68;78.67
36834;BME280;48003;52.084;5.224;2023-04-23T08:56:12;100571.0;;;14.69;78.09
36834;BME280;48003;52.084;5.224;2023-04-23T08:57:50;100573.0;;;14.72;77.61
36834;BME280;48003;52.084;5.224;2023-04-23T08:59:29;100580.0;;;14.71;77.94
36834;BME280;48003;52.084;5.224;2023-04-23T09:02:44;100584.0;;;14.6;78.58
36834;BME280;48003;52.084;5.224;2023-04-23T09:04:21;100577.0;;;14.7;78.19
36834;BME280;48003;52.084;5.224;2023-04-23T09:05:57;100572.0;;;14.96;77.44
36834;BME280;48003;52.084;5.224;2023-04-23T09:09:14;100568.0;;;15.12;76.41
36834;BME280;48003;52.084;5.224;2023-04-23T09:10:53;100569.0;;;15.4;76.33
36834;BME280;48003;52.084;5.224;2023-04-23T09:12:33;100574.0;;;15.49;75.77
36834;BME280;48003;52.084;5.224;2023-04-23T09:14:11;100572.0;;;15.52;76.11
36834;BME280;48003;52.084;5.224;2023-04-23T09:19:04;100567.0;;;15.56;74.39
36834;BME280;48003;52.084;5.224;2023-04-23T09:20:43;100572.0;;;15.56;74.08
36834;BME280;48003;52.084;5.224;2023-04-23T09:22:51;100566.0;;;15.47;72.23
36834;BME280;48003;52.084;5.224;2023-04-23T09:24:28;100565.0;;;15.48;73.55
36834;BME280;48003;52.084;5.224;2023-04-23T09:27:42;100566.0;;;15.58;73.73
36834;BME280;48003;52.084;5.224;2023-04-23T09:29:20;100564.0;;;15.87;72.22
36834;BME280;48003;52.084;5.224;2023-04-23T09:30:58;100562.0;;;15.87;72.22
36834;BME280;48003;52.084;5.224;2023-04-23T09:34:14;100557.0;;;15.96;70.67
36834;BME280;48003;52.084;5.224;2023-04-23T09:35:50;100557.0;;;15.99;70.08
36834;BME280;48003;52.084;5.224;2023-04-23T09:37:27;100556.0;;;16.27;70.63
36834;BME280;48003;52.084;5.224;2023-04-23T09:39:10;100548.0;;;16.13;68.91
36834;BME280;48003;52.084;5.224;2023-04-23T09:42:26;100552.0;;;16.18;69.59
36834;BME280;48003;52.084;5.224;2023-04-23T09:44:02;100551.0;;;16.41;69.25
36834;BME280;48003;52.084;5.224;2023-04-23T09:45:47;100551.0;;;16.7;69.08
36834;BME280;48003;52.084;5.224;2023-04-23T09:47:24;100555.0;;;16.55;69.58
36834;BME280;48003;52.084;5.224;2023-04-23T09:50:39;100558.0;;;16.31;68.52
36834;BME280;48003;52.084;5.224;2023-04-23T09:52:17;100547.0;;;16.34;68.17
36834;BME280;48003;52.084;5.224;2023-04-23T09:53:53;100557.0;;;16.59;67.63
36834;BME280;48003;52.084;5.224;2023-04-23T09:57:07;100552.0;;;16.81;67.58
36834;BME280;48003;52.084;5.224;2023-04-23T09:58:44;100548.0;;;16.91;67.8
36834;BME280;48003;52.084;5.224;2023-04-23T10:00:21;100559.0;;;16.9;67.37
36834;BME280;48003;52.084;5.224;2023-04-23T10:03:41;100546.0;;;17.0;65.91
36834;BME280;48003;52.084;5.224;2023-04-23T10:05:19;100544.0;;;17.16;66.33
36834;BME280;48003;52.084;5.224;2023-04-23T10:06:56;100545.0;;;17.27;65.08
36834;BME280;48003;52.084;5.224;2023-04-23T10:08:34;100544.0;;;17.29;65.55
36834;BME280;48003;52.084;5.224;2023-04-23T10:11:49;100537.0;;;17.43;66.02
36834;BME280;48003;52.084;5.224;2023-04-23T10:13:27;100559.0;;;17.41;64.6
36834;BME280;48003;52.084;5.224;2023-04-23T10:15:04;100540.0;;;17.25;62.21
36834;BME280;48003;52.084;5.224;2023-04-23T10:16:40;100541.0;;;17.16;62.98
36834;BME280;48003;52.084;5.224;2023-04-23T10:19:57;100546.0;;;17.25;61.43
36834;BME280;48003;52.084;5.224;2023-04-23T10:21:36;100542.0;;;17.61;61.71
36834;BME280;48003;52.084;5.224;2023-04-23T10:23:14;100528.0;;;17.54;60.89
36834;BME280;48003;52.084;5.224;2023-04-23T10:26:37;100543.0;;;17.79;59.03
36834;BME280;48003;52.084;5.224;2023-04-23T10:28:16;100532.0;;;17.8;58.78
36834;BME280;48003;52.084;5.224;2023-04-23T10:29:56;100521.0;;;17.53;58.02
36834;BME280;48003;52.084;5.224;2023-04-23T10:31:32;100523.0;;;17.7;59.07
36834;BME280;48003;52.084;5.224;2023-04-23T10:34:47;100520.0;;;17.7;59.73
36834;BME280;48003;52.084;5.224;2023-04-23T10:36:24;100520.0;;;17.66;59.47
36834;BME280;48003;52.084;5.224;2023-04-23T10:38:02;100513.0;;;17.77;60.16
36834;BME280;48003;52.084;5.224;2023-04-23T10:39:43;100516.0;;;18.12;59.36
36834;BME280;48003;52.084;5.224;2023-04-23T10:43:02;100510.0;;;17.75;59.08
36834;BME280;48003;52.084;5.224;2023-04-23T10:44:41;100511.0;;;17.89;60.13
36834;BME280;48003;52.084;5.224;2023-04-23T10:46:34;100507.0;;;18.07;59.0
36834;BME280;48003;52.084;5.224;2023-04-23T10:48:11;100506.0;;;18.12;58.76
36834;BME280;48003;52.084;5.224;2023-04-23T10:51:32;100499.0;;;17.98;56.83
36834;BME280;48003;52.084;5.224;2023-04-23T10:53:17;100498.0;;;18.11;56.54
36834;BME280;48003;52.084;5.224;2023-04-23T10:54:56;100490.0;;;17.89;56.24
36834;BME280;48003;52.084;5.224;2023-04-23T10:56:33;100496.0;;;17.88;56.22
36834;BME280;48003;52.084;5.224;2023-04-23T10:59:51;100501.0;;;17.86;55.77
36834;BME280;48003;52.084;5.224;2023-04-23T11:01:28;100489.0;;;18.2;54.69
36834;BME280;48003;52.084;5.224;2023-04-23T11:03:04;100496.0;;;18.27;55.45
36834;BME280;48003;52.084;5.224;2023-04-23T11:06:50;100500.0;;;18.03;53.89
36834;BME280;48003;52.084;5.224;2023-04-23T11:08:28;100480.0;;;17.86;53.81
36834;BME280;48003;52.084;5.224;2023-04-23T11:10:10;100482.0;;;18.12;54.31